createdAt,value
2023-06-10T00:02:51.291Z,97933.07
2023-06-10T00:05:54.458Z,97933.27
2023-06-10T00:08:57.988Z,97936.48
2023-06-10T00:12:01.867Z,97931.33
2023-06-10T00:15:08.559Z,97935.60
2023-06-10T00:18:12.913Z,97937.93
2023-06-10T00:21:16.538Z,97933.00
2023-06-10T00:24:19.960Z,97936.48
2023-06-10T00:27:23.184Z,97936.54
2023-06-10T00:30:26.337Z,97941.70
2023-06-10T00:33:29.851Z,97943.48
2023-06-10T00:36:32.849Z,97946.77
2023-06-10T00:39:35.916Z,97948.23
2023-06-10T00:42:40.918Z,97945.78
2023-06-10T00:45:43.986Z,97946.41
2023-06-10T00:48:47.687Z,97942.67
2023-06-10T00:51:52.017Z,97942.30
2023-06-10T00:54:55.748Z,97947.09
2023-06-10T00:57:58.948Z,97946.20
2023-06-10T01:01:03.028Z,97948.34
2023-06-10T01:04:06.052Z,97950.42
2023-06-10T01:07:10.524Z,97952.80
2023-06-10T01:10:33.965Z,97955.77
2023-06-10T01:13:38.614Z,97952.92
2023-06-10T01:16:42.125Z,97951.77
2023-06-10T01:19:56.123Z,97954.98
2023-06-10T01:23:04.233Z,97954.23
2023-06-10T01:26:11.675Z,97954.11
2023-06-10T01:29:17.783Z,97959.13
2023-06-10T01:32:30.204Z,97959.37
2023-06-10T01:35:34.303Z,97959.36
2023-06-10T01:38:48.590Z,97961.21
2023-06-10T01:41:53.283Z,97960.77
2023-06-10T01:44:56.401Z,97961.53
2023-06-10T01:47:59.518Z,97960.50
2023-06-10T01:51:03.234Z,97964.39
2023-06-10T01:54:07.248Z,97964.20
2023-06-10T01:57:11.468Z,97965.41
2023-06-10T02:00:15.158Z,97964.08
2023-06-10T02:03:19.548Z,97967.95
2023-06-10T02:06:22.768Z,97963.68
2023-06-10T02:09:26.342Z,97969.00
2023-06-10T02:12:29.364Z,97970.08
2023-06-10T02:15:32.430Z,97969.15
2023-06-10T02:18:35.441Z,97969.55
2023-06-10T02:21:38.536Z,97972.64
2023-06-10T02:24:41.591Z,97976.71
2023-06-10T02:27:44.654Z,97978.63
2023-06-10T02:30:48.245Z,97975.54
2023-06-10T02:33:51.443Z,97978.18
2023-06-10T02:36:54.531Z,97975.42
2023-06-10T02:39:58.206Z,97977.67
2023-06-10T02:43:01.521Z,97982.55
2023-06-10T02:46:04.904Z,97983.95
2023-06-10T02:49:08.287Z,97980.80
2023-06-10T02:52:12.589Z,97985.24
2023-06-10T02:55:16.394Z,97988.83
2023-06-10T02:58:23.498Z,97990.92
2023-06-10T03:01:26.736Z,97994.23
2023-06-10T03:04:35.121Z,97993.82
2023-06-10T03:07:42.176Z,98000.70
2023-06-10T03:10:45.563Z,98000.88
2023-06-10T03:13:51.520Z,97998.46
2023-06-10T03:16:54.936Z,98005.67
2023-06-10T03:19:59.683Z,98007.46
2023-06-10T03:23:02.790Z,98011.91
2023-06-10T03:26:09.341Z,98011.60
2023-06-10T03:29:14.518Z,98009.27
2023-06-10T03:32:17.743Z,98009.63
2023-06-10T03:35:21.008Z,98008.77
2023-06-10T03:38:24.139Z,98010.45
2023-06-10T03:41:27.628Z,98006.40
2023-06-10T03:44:30.880Z,98007.77
2023-06-10T03:47:38.224Z,98015.36
2023-06-10T03:50:43.988Z,98017.95
2023-06-10T03:53:47.300Z,98020.54
2023-06-10T03:56:50.825Z,98020.75
2023-06-10T03:59:55.356Z,98021.85
2023-06-10T04:02:59.340Z,98025.52
2023-06-10T04:06:10.157Z,98024.53
2023-06-10T04:09:13.892Z,98027.05
2023-06-10T04:12:17.838Z,98029.62
2023-06-10T04:15:20.996Z,98033.42
2023-06-10T04:18:24.458Z,98034.52
2023-06-10T04:21:28.436Z,98034.80
2023-06-10T04:24:32.090Z,98031.70
2023-06-10T04:27:35.481Z,98025.49
2023-06-10T04:30:38.531Z,98025.06
2023-06-10T04:33:42.288Z,98026.19
2023-06-10T04:36:45.627Z,98024.80
2023-06-10T04:39:49.224Z,98021.84
2023-06-10T04:42:52.589Z,98023.04
2023-06-10T04:45:56.661Z,98023.75
2023-06-10T04:48:59.912Z,98022.19
2023-06-10T04:52:05.937Z,98024.16
2023-06-10T04:55:12.485Z,98023.50
2023-06-10T04:58:16.295Z,98027.27
2023-06-10T05:01:19.399Z,98026.83
2023-06-10T05:04:22.476Z,98038.69
2023-06-10T05:07:25.501Z,98037.86
2023-06-10T05:10:28.713Z,98040.14
2023-06-10T05:13:31.764Z,98040.12
2023-06-10T05:16:34.845Z,98041.07
2023-06-10T05:19:38.520Z,98036.96
2023-06-10T05:22:41.773Z,98039.84
2023-06-10T05:25:44.776Z,98039.29
2023-06-10T05:28:48.057Z,98037.52
2023-06-10T05:31:51.212Z,98040.03
2023-06-10T05:34:54.346Z,98041.16
2023-06-10T05:37:57.562Z,98042.96
2023-06-10T05:41:00.772Z,98048.54
2023-06-10T05:44:04.023Z,98052.69
2023-06-10T05:47:07.276Z,98055.77
2023-06-10T05:50:11.177Z,98059.54
2023-06-10T05:53:16.365Z,98063.77
2023-06-10T05:56:19.628Z,98066.84
2023-06-10T05:59:23.953Z,98071.79
2023-06-10T06:02:27.396Z,98073.02
2023-06-10T06:05:35.889Z,98080.64
2023-06-10T06:08:39.150Z,98080.25
2023-06-10T06:11:42.395Z,98082.08
2023-06-10T06:14:45.996Z,98085.23
2023-06-10T06:17:49.324Z,98082.65
2023-06-10T06:20:52.564Z,98080.61
2023-06-10T06:23:55.900Z,98078.59
2023-06-10T06:26:59.019Z,98078.81
2023-06-10T06:30:02.171Z,98075.88
2023-06-10T06:33:05.735Z,98080.70
2023-06-10T06:36:08.853Z,98076.63
2023-06-10T06:39:11.914Z,98080.52
2023-06-10T06:42:15.798Z,98084.52
2023-06-10T06:45:39.079Z,98084.59
2023-06-10T06:48:42.271Z,98085.82
2023-06-10T06:51:45.421Z,98090.94
2023-06-10T06:54:48.494Z,98093.54
2023-06-10T06:57:51.504Z,98102.02
2023-06-10T07:00:54.707Z,98105.91
2023-06-10T07:03:58.871Z,98110.10
2023-06-10T07:07:01.898Z,98111.91
2023-06-10T07:10:05.384Z,98112.21
2023-06-10T07:13:08.428Z,98113.52
2023-06-10T07:16:11.833Z,98107.25
2023-06-10T07:19:14.916Z,98109.92
2023-06-10T07:22:18.010Z,98115.39
2023-06-10T07:25:21.047Z,98122.83
2023-06-10T07:28:24.248Z,98124.28
2023-06-10T07:31:27.402Z,98131.84
2023-06-10T07:34:30.484Z,98131.11
2023-06-10T07:37:33.579Z,98133.30
2023-06-10T07:40:36.652Z,98137.71
2023-06-10T07:43:39.643Z,98140.37
2023-06-10T07:46:43.058Z,98140.16
2023-06-10T07:49:46.227Z,98143.84
2023-06-10T07:52:49.260Z,98144.87
2023-06-10T07:55:52.279Z,98147.61
2023-06-10T07:58:55.303Z,98150.44
2023-06-10T08:01:58.377Z,98151.85
2023-06-10T08:05:01.547Z,98151.95
2023-06-10T08:08:05.003Z,98155.92
2023-06-10T08:11:08.043Z,98152.31
2023-06-10T08:14:11.206Z,98156.94
2023-06-10T08:17:14.262Z,98164.67
2023-06-10T08:20:17.371Z,98167.58
2023-06-10T08:23:20.881Z,98165.10
2023-06-10T08:26:24.976Z,98169.17
2023-06-10T08:29:28.078Z,98170.92
2023-06-10T08:32:31.397Z,98168.63
2023-06-10T08:35:34.621Z,98170.52
2023-06-10T08:38:37.796Z,98175.02
2023-06-10T08:41:46.714Z,98177.52
2023-06-10T08:44:55.923Z,98177.95
2023-06-10T08:48:00.595Z,98176.05
2023-06-10T08:51:06.663Z,98177.23
2023-06-10T08:54:20.152Z,98179.31
2023-06-10T08:57:24.083Z,98181.08
2023-06-10T09:00:28.649Z,98180.19
2023-06-10T09:03:32.447Z,98185.23
2023-06-10T09:06:36.940Z,98185.77
2023-06-10T09:09:40.094Z,98189.39
2023-06-10T09:12:44.954Z,98189.52
2023-06-10T09:15:50.187Z,98195.19
2023-06-10T09:18:56.220Z,98195.83
2023-06-10T09:22:00.167Z,98201.30
2023-06-10T09:25:11.485Z,98203.14
2023-06-10T09:28:16.268Z,98203.73
2023-06-10T09:31:23.139Z,98204.10
2023-06-10T09:34:27.631Z,98203.02
2023-06-10T09:37:30.798Z,98201.73
2023-06-10T09:40:33.899Z,98204.61
2023-06-10T09:43:41.508Z,98203.26
2023-06-10T09:46:49.505Z,98201.13
2023-06-10T09:49:56.117Z,98195.02
2023-06-10T09:52:59.247Z,98190.37
2023-06-10T09:56:02.862Z,98193.05
2023-06-10T09:59:07.451Z,98186.73
2023-06-10T10:02:15.423Z,98189.23
2023-06-10T10:05:20.608Z,98184.48
2023-06-10T10:08:23.997Z,98184.36
2023-06-10T10:11:28.408Z,98181.64
2023-06-10T10:14:34.146Z,98182.28
2023-06-10T10:17:53.844Z,98181.35
2023-06-10T10:21:01.772Z,98180.27
2023-06-10T10:24:32.115Z,98182.73
2023-06-10T10:27:42.163Z,98179.55
2023-06-10T10:30:52.007Z,98177.55
2023-06-10T10:34:08.546Z,98178.02
2023-06-10T10:37:11.796Z,98175.17
2023-06-10T10:40:15.994Z,98167.98
2023-06-10T10:43:19.661Z,98166.70
2023-06-10T10:46:22.917Z,98168.16
2023-06-10T10:49:26.448Z,98166.67
2023-06-10T10:52:52.232Z,98164.54
2023-06-10T10:56:07.101Z,98154.59
2023-06-10T10:59:10.326Z,98154.55
2023-06-10T11:02:19.246Z,98146.55
2023-06-10T11:05:36.462Z,98140.70
2023-06-10T11:08:42.343Z,98134.18
2023-06-10T11:11:51.790Z,98129.59
2023-06-10T11:14:56.938Z,98128.09
2023-06-10T11:18:21.542Z,98119.95
2023-06-10T11:21:28.998Z,98110.80
2023-06-10T11:24:33.105Z,98110.23
2023-06-10T11:27:40.561Z,98117.71
2023-06-10T11:30:43.813Z,98112.17
2023-06-10T11:33:48.640Z,98112.36
2023-06-10T11:36:52.612Z,98108.80
2023-06-10T11:39:59.817Z,98106.05
2023-06-10T11:43:05.170Z,98104.34
2023-06-10T11:46:09.609Z,98107.02
2023-06-10T11:49:13.294Z,98105.71
2023-06-10T11:52:16.385Z,98102.90
2023-06-10T11:55:19.418Z,98101.61
2023-06-10T11:58:23.376Z,98106.83
2023-06-10T12:01:29.514Z,98101.60
2023-06-10T12:04:33.115Z,98100.16
2023-06-10T12:07:36.168Z,98099.08
2023-06-10T12:10:43.377Z,98100.66
2023-06-10T12:13:49.717Z,98101.89
2023-06-10T12:16:52.757Z,98101.61
2023-06-10T12:19:55.828Z,98101.23
2023-06-10T12:22:59.028Z,98103.59
2023-06-10T12:26:03.147Z,98098.80
2023-06-10T12:29:38.579Z,98096.86
2023-06-10T12:32:47.806Z,98096.23
2023-06-10T12:35:53.040Z,98097.21
2023-06-10T12:39:04.029Z,98094.19
2023-06-10T12:42:10.829Z,98092.45
2023-06-10T12:45:14.601Z,98092.73
2023-06-10T12:48:22.546Z,98088.70
2023-06-10T12:51:26.721Z,98092.11
2023-06-10T12:54:29.709Z,98093.58
2023-06-10T12:57:32.847Z,98091.58
2023-06-10T13:00:36.352Z,98088.56
2023-06-10T13:03:41.409Z,98081.95
2023-06-10T13:06:44.495Z,98079.19
2023-06-10T13:09:50.384Z,98086.31
2023-06-10T13:12:55.783Z,98085.88
2023-06-10T13:15:59.024Z,98074.05
2023-06-10T13:19:03.867Z,98070.29
2023-06-10T13:22:06.930Z,98069.89
2023-06-10T13:25:11.169Z,98067.86
2023-06-10T13:28:14.774Z,98070.64
2023-06-10T13:31:18.514Z,98070.93
2023-06-10T13:34:21.879Z,98077.04
2023-06-10T13:37:25.127Z,98079.94
2023-06-10T13:40:28.223Z,98082.93
2023-06-10T13:43:31.781Z,98085.82
2023-06-10T13:46:34.916Z,98093.04
2023-06-10T13:49:38.465Z,98100.23
2023-06-10T13:52:41.628Z,98112.39
2023-06-10T13:55:44.649Z,98114.08
2023-06-10T13:58:47.691Z,98114.25
2023-06-10T14:01:50.940Z,98108.48
2023-06-10T14:04:54.153Z,98109.55
2023-06-10T14:07:57.413Z,98107.12
2023-06-10T14:11:00.670Z,98109.01
2023-06-10T14:14:03.887Z,98104.57
2023-06-10T14:17:07.351Z,98107.98
2023-06-10T14:20:10.972Z,98108.02
2023-06-10T14:23:14.009Z,98110.64
2023-06-10T14:26:17.262Z,98108.35
2023-06-10T14:29:20.693Z,98104.52
2023-06-10T14:32:23.918Z,98104.92
2023-06-10T14:35:27.166Z,98105.10
2023-06-10T14:38:30.488Z,98103.58
2023-06-10T14:41:33.595Z,98096.88
2023-06-10T14:44:36.694Z,98093.46
2023-06-10T14:47:39.910Z,98086.46
2023-06-10T14:50:46.231Z,98088.39
2023-06-10T14:53:49.352Z,98090.58
2023-06-10T14:56:52.384Z,98088.76
2023-06-10T14:59:57.120Z,98090.93
2023-06-10T15:03:00.224Z,98093.89
2023-06-10T15:06:04.285Z,98102.70
2023-06-10T15:09:07.367Z,98111.98
2023-06-10T15:12:13.114Z,98121.10
2023-06-10T15:15:18.252Z,98122.40
2023-06-10T15:18:21.488Z,98117.98
2023-06-10T15:21:26.666Z,98119.77
2023-06-10T15:24:29.696Z,98119.77
2023-06-10T15:27:32.745Z,98119.28
2023-06-10T15:30:35.892Z,98119.20
2023-06-10T15:33:39.264Z,98120.05
2023-06-10T15:36:42.394Z,98118.61
2023-06-10T15:39:45.488Z,98115.09
2023-06-10T15:42:48.578Z,98113.23
2023-06-10T15:50:31.966Z,98119.11
2023-06-10T15:53:35.045Z,98121.33
2023-06-10T15:56:40.694Z,98125.10
2023-06-10T15:59:43.755Z,98122.79
2023-06-10T16:02:46.994Z,98118.54
2023-06-10T16:05:50.096Z,98118.85
2023-06-10T16:08:53.128Z,98115.59
2023-06-10T16:11:56.213Z,98118.02
2023-06-10T16:14:59.249Z,98120.91
2023-06-10T16:18:02.487Z,98124.27
2023-06-10T16:21:06.603Z,98127.52
2023-06-10T16:24:10.248Z,98132.94
2023-06-10T16:27:13.461Z,98150.95
2023-06-10T16:30:16.934Z,98190.05
2023-06-10T16:33:20.226Z,98221.39
2023-06-10T16:36:23.378Z,98211.71
2023-06-10T16:39:26.410Z,98203.58
2023-06-10T16:42:29.521Z,98188.10
2023-06-10T16:45:32.551Z,98185.40
2023-06-10T16:48:35.700Z,98195.22
2023-06-10T16:51:38.796Z,98193.36
2023-06-10T16:54:42.114Z,98195.23
2023-06-10T16:57:45.146Z,98193.40
2023-06-10T17:00:50.617Z,98197.33
2023-06-10T17:03:53.680Z,98199.41
2023-06-10T17:06:57.106Z,98204.88
2023-06-10T17:10:00.422Z,98213.20
2023-06-10T17:13:03.550Z,98213.27
2023-06-10T17:16:06.778Z,98215.45
2023-06-10T17:19:09.873Z,98218.39
2023-06-10T17:22:12.921Z,98222.05
2023-06-10T17:25:16.254Z,98223.91
2023-06-10T17:28:19.645Z,98221.98
2023-06-10T17:31:22.868Z,98227.16
2023-06-10T17:34:26.002Z,98224.25
2023-06-10T17:37:29.108Z,98228.98
2023-06-10T17:40:32.265Z,98227.80
2023-06-10T17:43:35.400Z,98232.17
2023-06-10T17:46:38.669Z,98233.17
2023-06-10T17:49:41.810Z,98234.82
2023-06-10T17:52:44.995Z,98231.94
2023-06-10T17:55:48.082Z,98233.73
2023-06-10T17:58:51.200Z,98234.48
2023-06-10T18:01:54.300Z,98235.96
2023-06-10T18:04:57.426Z,98238.07
2023-06-10T18:08:00.478Z,98236.04
2023-06-10T18:11:04.053Z,98243.33
2023-06-10T18:14:07.292Z,98245.73
2023-06-10T18:17:10.417Z,98248.90
2023-06-10T18:20:14.208Z,98248.63
2023-06-10T18:23:17.542Z,98249.16
2023-06-10T18:26:20.864Z,98252.83
2023-06-10T18:29:23.937Z,98251.92
2023-06-10T18:32:27.129Z,98259.53
2023-06-10T18:35:30.237Z,98261.07
2023-06-10T18:38:33.316Z,98258.94
2023-06-10T18:41:36.323Z,98260.41
2023-06-10T18:44:39.372Z,98260.67
2023-06-10T18:47:57.055Z,98265.01
2023-06-10T18:51:01.539Z,98275.17
2023-06-10T18:54:04.762Z,98282.46
2023-06-10T18:57:11.162Z,98285.52
2023-06-10T19:00:14.977Z,98287.04
2023-06-10T19:03:18.323Z,98292.10
2023-06-10T19:06:21.517Z,98292.50
2023-06-10T19:09:24.518Z,98295.95
2023-06-10T19:12:27.579Z,98298.69
2023-06-10T19:15:30.676Z,98301.01
2023-06-10T19:18:34.630Z,98302.04
2023-06-10T19:21:37.776Z,98306.17
2023-06-10T19:24:40.954Z,98309.21
2023-06-10T19:27:44.083Z,98312.79
2023-06-10T19:30:47.151Z,98310.16
2023-06-10T19:33:50.329Z,98308.19
2023-06-10T19:36:53.411Z,98311.12
2023-06-10T19:39:56.930Z,98310.75
2023-06-10T19:43:00.056Z,98312.25
2023-06-10T19:46:03.266Z,98309.09
2023-06-10T19:49:06.969Z,98309.65
2023-06-10T19:52:10.475Z,98314.79
2023-06-10T19:55:15.324Z,98320.20
2023-06-10T19:58:18.550Z,98318.71
2023-06-10T20:01:22.547Z,98320.50
2023-06-10T20:04:25.934Z,98319.80
2023-06-10T20:07:29.130Z,98317.77
2023-06-10T20:10:32.438Z,98316.27
2023-06-10T20:13:35.653Z,98318.96
2023-06-10T20:16:38.788Z,98320.74
2023-06-10T20:19:41.865Z,98325.21
2023-06-10T20:22:44.932Z,98325.46
2023-06-10T20:25:48.121Z,98326.67
2023-06-10T20:28:51.333Z,98325.34
2023-06-10T20:31:54.722Z,98324.15
2023-06-10T20:34:58.480Z,98322.31
2023-06-10T20:38:02.093Z,98319.70
2023-06-10T20:41:05.204Z,98328.09
2023-06-10T20:44:08.431Z,98331.60
2023-06-10T20:47:11.662Z,98332.27
2023-06-10T20:50:14.809Z,98334.20
2023-06-10T20:53:18.232Z,98333.88
2023-06-10T20:56:21.584Z,98334.74
2023-06-10T20:59:24.691Z,98333.79
2023-06-10T21:02:27.854Z,98336.23
2023-06-10T21:05:31.232Z,98335.55
2023-06-10T21:08:34.342Z,98341.20
2023-06-10T21:11:38.641Z,98340.62
2023-06-10T21:14:42.020Z,98342.17
2023-06-10T21:17:45.457Z,98340.89
2023-06-10T21:20:48.611Z,98345.54
2023-06-10T21:23:51.819Z,98346.48
2023-06-10T21:26:55.023Z,98344.02
2023-06-10T21:29:58.534Z,98344.08
2023-06-10T21:33:02.071Z,98341.86
2023-06-10T21:36:05.606Z,98344.44
2023-06-10T21:39:09.321Z,98340.11
2023-06-10T21:42:12.351Z,98346.94
2023-06-10T21:45:15.719Z,98345.91
2023-06-10T21:48:19.207Z,98347.50
2023-06-10T21:51:22.288Z,98345.30
2023-06-10T21:54:25.540Z,98349.43
2023-06-10T21:57:28.637Z,98347.16
2023-06-10T22:00:31.773Z,98349.54
2023-06-10T22:03:34.946Z,98353.90
2023-06-10T22:06:38.407Z,98355.73
2023-06-10T22:09:49.064Z,98354.90
2023-06-10T22:12:52.266Z,98353.87
2023-06-10T22:15:55.543Z,98355.19
2023-06-10T22:18:58.519Z,98354.85
2023-06-10T22:22:01.634Z,98356.18
2023-06-10T22:25:05.022Z,98350.91
2023-06-10T22:28:08.132Z,98356.89
2023-06-10T22:31:11.375Z,98352.02
2023-06-10T22:34:14.671Z,98349.59
2023-06-10T22:37:18.015Z,98347.95
2023-06-10T22:40:21.116Z,98344.67
2023-06-10T22:43:24.201Z,98342.79
2023-06-10T22:46:27.192Z,98347.55
2023-06-10T22:49:30.319Z,98341.14
2023-06-10T22:52:33.392Z,98341.09
2023-06-10T22:55:36.456Z,98340.31
2023-06-10T22:58:39.569Z,98346.30
2023-06-10T23:01:42.771Z,98343.53
2023-06-10T23:04:45.904Z,98348.56
2023-06-10T23:07:49.199Z,98350.27
2023-06-10T23:10:52.311Z,98347.92
2023-06-10T23:13:55.502Z,98345.96
2023-06-10T23:16:58.583Z,98342.17
2023-06-10T23:20:02.825Z,98341.67
2023-06-10T23:23:08.204Z,98340.69
2023-06-10T23:26:11.967Z,98343.17
2023-06-10T23:29:15.131Z,98345.23
2023-06-10T23:32:18.337Z,98343.75
2023-06-10T23:35:21.532Z,98346.10
2023-06-10T23:38:24.628Z,98343.13
2023-06-10T23:41:27.717Z,98344.33
2023-06-10T23:44:30.739Z,98346.27
2023-06-10T23:47:33.805Z,98348.77
2023-06-10T23:50:38.157Z,98347.29
2023-06-10T23:53:41.381Z,98351.78
2023-06-10T23:56:44.550Z,98354.37
2023-06-10T23:59:47.603Z,98352.92
